createdAt,value
2019-04-10T00:00:35.130Z,1.17
2019-04-10T00:03:04.126Z,1.30
2019-04-10T00:05:32.425Z,0.93
2019-04-10T00:08:01.810Z,1.17
2019-04-10T00:10:30.302Z,1.10
2019-04-10T00:12:58.617Z,1.37
2019-04-10T00:15:27.098Z,0.70
2019-04-10T00:17:55.689Z,1.20
2019-04-10T00:20:24.596Z,1.20
2019-04-10T00:22:53.302Z,1.47
2019-04-10T00:25:21.633Z,0.97
2019-04-10T00:27:50.736Z,1.20
2019-04-10T00:30:19.190Z,1.47
2019-04-10T00:32:48.103Z,1.33
2019-04-10T00:35:16.457Z,1.07
2019-04-10T00:37:44.989Z,1.40
2019-04-10T00:40:13.257Z,3.23
2019-04-10T00:42:41.898Z,0.90
2019-04-10T00:45:11.254Z,1.17
2019-04-10T00:47:39.616Z,1.30
2019-04-10T00:50:08.483Z,1.50
2019-04-10T00:52:37.076Z,1.37
2019-04-10T00:55:05.877Z,1.17
2019-04-10T00:57:34.526Z,1.93
2019-04-10T01:00:02.805Z,1.10
2019-04-10T01:02:32.202Z,0.97
2019-04-10T01:05:00.834Z,1.00
2019-04-10T01:07:36.581Z,1.07
2019-04-10T01:09:59.128Z,1.37
2019-04-10T01:12:28.169Z,1.47
2019-04-10T01:14:58.100Z,1.50
2019-04-10T01:17:26.688Z,0.97
2019-04-10T01:19:54.961Z,1.10
2019-04-10T01:22:24.069Z,1.07
2019-04-10T01:24:52.431Z,1.10
2019-04-10T01:27:21.017Z,1.37
2019-04-10T01:29:49.633Z,1.30
2019-04-10T01:32:18.014Z,1.23
2019-04-10T01:34:46.538Z,2.10
2019-04-10T01:37:14.804Z,1.80
2019-04-10T01:39:43.443Z,1.53
2019-04-10T01:42:12.467Z,1.73
2019-04-10T01:44:40.764Z,1.43
2019-04-10T01:47:09.074Z,1.60
2019-04-10T01:49:37.882Z,1.97
2019-04-10T01:52:06.933Z,1.93
2019-04-10T01:54:35.989Z,2.00
2019-04-10T01:57:04.299Z,1.63
2019-04-10T01:59:34.143Z,1.27
2019-04-10T02:02:05.161Z,1.83
2019-04-10T02:04:33.672Z,1.90
2019-04-10T02:07:02.208Z,1.60
2019-04-10T02:09:31.665Z,1.97
2019-04-10T02:12:00.276Z,1.37
2019-04-10T02:14:28.562Z,2.07
2019-04-10T02:16:57.091Z,1.73
2019-04-10T02:19:26.113Z,2.33
2019-04-10T02:21:54.472Z,2.03
2019-04-10T02:24:23.024Z,2.50
2019-04-10T02:26:51.963Z,2.30
2019-04-10T02:29:20.431Z,2.30
2019-04-10T02:31:50.550Z,1.83
2019-04-10T02:34:19.305Z,1.93
2019-04-10T02:36:50.668Z,1.70
2019-04-10T02:39:29.167Z,2.03
2019-04-10T02:41:49.980Z,2.13
2019-04-10T02:44:18.723Z,1.67
2019-04-10T02:46:47.448Z,1.63
2019-04-10T02:49:16.366Z,2.03
2019-04-10T02:51:45.452Z,1.50
2019-04-10T02:54:15.352Z,2.20
2019-04-10T02:56:45.577Z,1.50
2019-04-10T02:59:15.451Z,1.60
2019-04-10T03:01:44.150Z,1.63
2019-04-10T03:04:13.360Z,1.67
2019-04-10T03:06:42.818Z,1.80
2019-04-10T03:09:28.892Z,1.80
2019-04-10T03:11:41.978Z,2.00
2019-04-10T03:14:12.362Z,1.60
2019-04-10T03:16:41.758Z,2.10
2019-04-10T03:19:10.154Z,1.90
2019-04-10T03:21:39.473Z,1.70
2019-04-10T03:24:07.813Z,1.53
2019-04-10T03:26:36.092Z,1.83
2019-04-10T03:29:05.257Z,1.80
2019-04-10T03:31:34.438Z,1.53
2019-04-10T03:34:19.282Z,2.30
2019-04-10T03:36:47.511Z,1.30
2019-04-10T03:39:15.931Z,2.90
2019-04-10T03:41:44.372Z,1.97
2019-04-10T03:44:12.663Z,1.90
2019-04-10T03:46:41.083Z,2.07
2019-04-10T03:49:09.641Z,1.87
2019-04-10T03:51:38.777Z,2.43
2019-04-10T03:54:07.247Z,1.33
2019-04-10T03:56:36.167Z,1.27
2019-04-10T03:59:04.444Z,1.70
2019-04-10T04:01:33.382Z,1.70
2019-04-10T04:04:01.840Z,1.67
2019-04-10T04:06:30.121Z,1.97
2019-04-10T04:09:05.917Z,1.63
2019-04-10T04:11:29.357Z,1.20
2019-04-10T04:13:57.751Z,2.60
2019-04-10T04:16:29.183Z,3.40
2019-04-10T04:18:57.677Z,1.83
2019-04-10T04:21:25.976Z,1.63
2019-04-10T04:23:55.228Z,1.80
2019-04-10T04:26:23.622Z,2.17
2019-04-10T04:28:52.072Z,1.90
2019-04-10T04:31:20.354Z,1.77
2019-04-10T04:33:49.000Z,2.13
2019-04-10T04:36:18.267Z,1.85
2019-04-10T04:38:46.761Z,1.87
2019-04-10T04:41:15.432Z,1.93
2019-04-10T04:43:45.970Z,1.77
2019-04-10T04:46:14.136Z,2.03
2019-04-10T04:48:43.342Z,1.83
2019-04-10T04:51:11.755Z,2.13
2019-04-10T04:53:40.033Z,1.77
2019-04-10T04:56:09.406Z,1.67
2019-04-10T04:58:38.210Z,1.90
2019-04-10T05:01:06.560Z,2.20
2019-04-10T05:03:35.427Z,1.70
2019-04-10T05:06:03.859Z,1.60
2019-04-10T05:08:32.416Z,1.47
2019-04-10T05:11:00.800Z,1.63
2019-04-10T05:13:29.232Z,1.90
2019-04-10T05:15:57.618Z,1.77
2019-04-10T05:18:25.892Z,1.90
2019-04-10T05:20:54.694Z,1.90
2019-04-10T05:23:23.147Z,1.70
2019-04-10T05:25:51.935Z,2.10
2019-04-10T05:28:20.517Z,1.60
2019-04-10T05:30:48.828Z,2.07
2019-04-10T05:33:17.440Z,2.03
2019-04-10T05:35:45.855Z,1.10
2019-04-10T05:38:14.126Z,1.70
2019-04-10T05:40:44.184Z,1.30
2019-04-10T05:43:13.451Z,1.40
2019-04-10T05:45:42.818Z,2.07
2019-04-10T05:48:11.136Z,1.90
2019-04-10T05:50:39.857Z,2.17
2019-04-10T05:53:08.356Z,2.00
2019-04-10T05:55:38.547Z,2.33
2019-04-10T05:58:07.193Z,1.50
2019-04-10T06:00:36.631Z,1.70
2019-04-10T06:03:06.204Z,1.60
2019-04-10T06:05:34.547Z,1.13
2019-04-10T06:08:02.878Z,1.77
2019-04-10T06:10:32.209Z,2.20
2019-04-10T06:13:00.709Z,1.53
2019-04-10T06:15:29.007Z,1.80
2019-04-10T06:17:58.607Z,1.70
2019-04-10T06:20:27.192Z,1.87
2019-04-10T06:22:55.476Z,1.20
2019-04-10T06:25:24.886Z,1.47
2019-04-10T06:27:53.609Z,1.23
2019-04-10T06:30:21.853Z,1.77
2019-04-10T06:32:50.193Z,1.63
2019-04-10T06:35:18.698Z,1.63
2019-04-10T06:37:48.404Z,1.70
2019-04-10T06:40:21.244Z,1.23
2019-04-10T06:42:52.299Z,1.70
2019-04-10T06:45:19.853Z,1.97
2019-04-10T06:47:48.684Z,1.87
2019-04-10T06:50:17.022Z,1.87
2019-04-10T06:52:45.314Z,1.33
2019-04-10T06:55:15.371Z,2.03
2019-04-10T06:57:51.220Z,1.93
2019-04-10T07:00:16.992Z,2.00
2019-04-10T07:02:46.284Z,1.70
2019-04-10T07:05:15.101Z,2.20
2019-04-10T07:07:51.370Z,2.20
2019-04-10T07:10:22.748Z,2.20
2019-04-10T07:12:43.908Z,2.07
2019-04-10T07:15:12.933Z,1.90
2019-04-10T07:17:41.985Z,2.87
2019-04-10T07:20:11.531Z,2.43
2019-04-10T07:22:46.669Z,2.43
2019-04-10T07:25:12.457Z,2.47
2019-04-10T07:27:41.643Z,2.20
2019-04-10T07:30:10.179Z,2.50
2019-04-10T07:32:41.207Z,2.20
2019-04-10T07:35:08.996Z,2.70
2019-04-10T07:37:37.470Z,2.70
2019-04-10T07:40:07.978Z,3.23
2019-04-10T07:42:39.777Z,3.67
2019-04-10T07:45:07.862Z,3.77
2019-04-10T07:47:36.391Z,3.90
2019-04-10T07:50:10.303Z,2.83
2019-04-10T07:52:38.697Z,3.37
2019-04-10T07:55:07.078Z,3.47
2019-04-10T07:57:36.378Z,3.80
2019-04-10T08:00:06.718Z,3.20
2019-04-10T08:02:35.583Z,3.30
2019-04-10T08:05:05.139Z,3.40
2019-04-10T08:07:36.306Z,2.93
2019-04-10T08:10:05.649Z,3.87
2019-04-10T08:12:42.452Z,3.53
2019-04-10T08:15:05.578Z,2.70
2019-04-10T08:17:34.564Z,2.80
2019-04-10T08:20:03.783Z,3.00
2019-04-10T08:22:32.839Z,3.30
2019-04-10T08:25:02.276Z,3.23
2019-04-10T08:27:32.001Z,2.73
2019-04-10T08:30:01.168Z,4.23
2019-04-10T08:32:30.160Z,3.63
2019-04-10T08:34:58.458Z,2.83
2019-04-10T08:37:26.898Z,3.20
2019-04-10T08:39:55.355Z,3.57
2019-04-10T08:42:24.465Z,3.30
2019-04-10T08:44:52.892Z,4.13
2019-04-10T08:47:22.567Z,3.10
2019-04-10T08:49:50.990Z,3.10
2019-04-10T08:52:19.957Z,2.70
2019-04-10T08:54:49.066Z,2.80
2019-04-10T08:57:17.693Z,2.50
2019-04-10T08:59:47.197Z,2.73
2019-04-10T09:02:16.088Z,2.50
2019-04-10T09:04:44.696Z,3.00
2019-04-10T09:07:13.760Z,3.30
2019-04-10T09:09:42.083Z,2.20
2019-04-10T09:12:10.501Z,2.13
2019-04-10T09:14:38.798Z,2.50
2019-04-10T09:17:11.202Z,2.60
2019-04-10T09:19:40.265Z,2.27
2019-04-10T09:22:10.040Z,2.50
2019-04-10T09:24:38.467Z,2.80
2019-04-10T09:27:06.755Z,2.30
2019-04-10T09:29:36.262Z,3.20
2019-04-10T09:32:04.748Z,2.90
2019-04-10T09:34:34.030Z,2.17
2019-04-10T09:37:02.600Z,2.27
2019-04-10T09:39:31.775Z,3.50
2019-04-10T09:42:01.118Z,2.93
2019-04-10T09:44:29.893Z,1.80
2019-04-10T09:46:58.240Z,2.73
2019-04-10T09:49:37.662Z,2.73
2019-04-10T09:51:58.618Z,2.63
2019-04-10T09:54:28.028Z,2.93
2019-04-10T09:56:57.188Z,3.60
2019-04-10T09:59:33.972Z,2.87
2019-04-10T10:01:56.355Z,2.77
2019-04-10T10:04:25.717Z,2.40
2019-04-10T10:06:54.178Z,3.17
2019-04-10T10:09:23.860Z,3.43
2019-04-10T10:11:53.365Z,2.80
2019-04-10T10:14:23.000Z,2.20
2019-04-10T10:16:52.511Z,2.43
2019-04-10T10:19:21.827Z,2.80
2019-04-10T10:21:50.546Z,2.70
2019-04-10T10:24:19.797Z,2.10
2019-04-10T10:26:49.309Z,2.73
2019-04-10T10:29:18.418Z,2.57
2019-04-10T10:31:49.334Z,3.07
2019-04-10T10:34:18.462Z,2.40
2019-04-10T10:36:50.659Z,2.17
2019-04-10T10:39:19.060Z,2.37
2019-04-10T10:41:48.869Z,2.30
2019-04-10T10:44:17.438Z,2.57
2019-04-10T10:46:45.876Z,3.30
2019-04-10T10:49:14.165Z,2.60
2019-04-10T10:51:42.662Z,2.80
2019-04-10T10:54:10.943Z,2.23
2019-04-10T10:56:40.396Z,2.13
2019-04-10T10:59:09.249Z,2.67
2019-04-10T11:01:38.040Z,2.97
2019-04-10T11:04:06.834Z,3.10
2019-04-10T11:06:48.922Z,2.40
2019-04-10T11:09:08.333Z,3.20
2019-04-10T11:11:37.063Z,3.10
2019-04-10T11:14:05.929Z,3.10
2019-04-10T11:16:34.507Z,3.37
2019-04-10T11:19:02.890Z,2.80
2019-04-10T11:21:32.395Z,3.20
2019-04-10T11:24:01.048Z,3.83
2019-04-10T11:26:30.233Z,3.50
2019-04-10T11:28:59.157Z,3.63
2019-04-10T11:31:29.106Z,3.40
2019-04-10T11:33:58.225Z,3.03
2019-04-10T11:36:28.083Z,3.27
2019-04-10T11:39:09.095Z,3.60
2019-04-10T11:41:26.605Z,3.47
2019-04-10T11:43:56.042Z,3.30
2019-04-10T11:46:28.223Z,3.20
2019-04-10T11:48:55.546Z,3.60
2019-04-10T11:51:29.798Z,3.43
2019-04-10T11:53:56.460Z,4.00
2019-04-10T11:56:26.831Z,2.90
2019-04-10T11:58:56.875Z,3.77
2019-04-10T12:01:25.673Z,2.93
2019-04-10T12:03:56.591Z,3.80
2019-04-10T12:06:25.324Z,3.20
2019-04-10T12:09:13.735Z,4.60
2019-04-10T12:11:24.724Z,3.80
2019-04-10T12:13:53.156Z,3.30
2019-04-10T12:16:21.524Z,3.30
2019-04-10T12:18:50.870Z,3.13
2019-04-10T12:21:19.875Z,2.77
2019-04-10T12:23:50.050Z,3.40
2019-04-10T12:26:18.219Z,3.27
2019-04-10T12:28:46.647Z,3.90
2019-04-10T12:31:15.606Z,3.50
2019-04-10T12:33:44.408Z,3.13
2019-04-10T12:36:14.126Z,3.27
2019-04-10T12:38:43.639Z,2.97
2019-04-10T12:41:12.079Z,3.23
2019-04-10T12:43:41.111Z,2.70
2019-04-10T12:46:10.679Z,3.10
2019-04-10T12:48:41.055Z,2.47
2019-04-10T12:51:10.001Z,3.27
2019-04-10T12:53:38.332Z,2.93
2019-04-10T12:56:06.659Z,3.43
2019-04-10T12:58:35.080Z,2.67
2019-04-10T13:01:04.533Z,3.03
2019-04-10T13:03:33.373Z,2.50
2019-04-10T13:06:01.956Z,1.70
2019-04-10T13:08:49.953Z,2.10
2019-04-10T13:11:02.559Z,1.90
2019-04-10T13:13:31.365Z,2.30
2019-04-10T13:15:59.630Z,2.37
2019-04-10T13:18:28.150Z,2.43
2019-04-10T13:20:57.935Z,2.03
2019-04-10T13:23:26.687Z,1.70
2019-04-10T13:25:58.093Z,1.53
2019-04-10T13:28:25.543Z,1.80
2019-04-10T13:30:55.534Z,1.60
2019-04-10T13:33:24.617Z,1.80
2019-04-10T13:35:53.379Z,1.67
2019-04-10T13:38:26.624Z,1.40
2019-04-10T13:40:52.196Z,1.73
2019-04-10T13:43:20.495Z,1.97
2019-04-10T13:45:48.810Z,1.73
2019-04-10T13:48:17.090Z,1.77
2019-04-10T13:50:46.554Z,1.90
2019-04-10T13:53:15.503Z,1.50
2019-04-10T13:55:44.556Z,1.70
2019-04-10T13:58:13.027Z,1.90
2019-04-10T14:00:42.973Z,1.90
2019-04-10T14:03:12.331Z,1.87
2019-04-10T14:05:41.210Z,1.77
2019-04-10T14:08:10.433Z,1.50
2019-04-10T14:10:41.217Z,2.10
2019-04-10T14:13:08.964Z,1.90
2019-04-10T14:15:37.360Z,1.70
2019-04-10T14:18:06.256Z,1.80
2019-04-10T14:20:35.433Z,2.20
2019-04-10T14:23:12.570Z,1.80
2019-04-10T14:25:45.000Z,2.40
2019-04-10T14:28:13.276Z,2.50
2019-04-10T14:30:43.308Z,2.40
2019-04-10T14:33:12.879Z,1.77
2019-04-10T14:35:41.397Z,2.27
2019-04-10T14:38:11.273Z,2.17
2019-04-10T14:40:40.113Z,2.37
2019-04-10T14:43:08.570Z,2.03
2019-04-10T14:45:38.089Z,2.43
2019-04-10T14:48:07.878Z,1.70
2019-04-10T14:50:36.467Z,1.77
2019-04-10T14:53:05.629Z,2.57
2019-04-10T14:55:33.944Z,2.17
2019-04-10T14:58:03.445Z,2.10
2019-04-10T15:00:46.622Z,2.50
2019-04-10T15:03:16.116Z,1.80
2019-04-10T15:05:50.223Z,1.93
2019-04-10T15:08:15.495Z,2.70
2019-04-10T15:10:44.164Z,2.10
2019-04-10T15:13:17.486Z,2.00
2019-04-10T15:15:42.837Z,2.03
2019-04-10T15:18:11.250Z,2.20
2019-04-10T15:20:39.829Z,2.20
2019-04-10T15:23:08.245Z,2.10
2019-04-10T15:25:39.549Z,1.70
2019-04-10T15:28:08.488Z,1.90
2019-04-10T15:30:36.962Z,2.27
2019-04-10T15:33:06.591Z,1.73
2019-04-10T15:35:35.121Z,1.90
2019-04-10T15:38:04.050Z,2.10
2019-04-10T15:40:32.465Z,1.40
2019-04-10T15:43:00.843Z,1.97
2019-04-10T15:45:30.231Z,2.03
2019-04-10T15:48:00.173Z,1.60
2019-04-10T15:50:28.837Z,1.87
2019-04-10T15:52:57.971Z,1.90
2019-04-10T15:55:26.318Z,1.93
2019-04-10T15:57:57.815Z,1.50
2019-04-10T16:00:25.384Z,1.83
2019-04-10T16:02:55.349Z,1.70
2019-04-10T16:05:23.887Z,1.73
2019-04-10T16:07:53.135Z,1.70
2019-04-10T16:10:33.328Z,1.80
2019-04-10T16:13:19.875Z,2.17
2019-04-10T16:15:48.405Z,1.87
2019-04-10T16:18:21.170Z,1.80
2019-04-10T16:20:51.217Z,1.90
2019-04-10T16:23:34.109Z,2.70
2019-04-10T16:26:02.969Z,2.40
2019-04-10T16:28:31.521Z,2.33
2019-04-10T16:31:00.023Z,2.20
2019-04-10T16:33:29.440Z,1.93
2019-04-10T16:35:58.926Z,2.07
2019-04-10T16:38:28.634Z,2.23
2019-04-10T16:40:58.176Z,1.90
2019-04-10T16:43:28.511Z,1.80
2019-04-10T16:45:57.302Z,1.93
2019-04-10T16:48:26.446Z,1.70
2019-04-10T16:50:56.082Z,2.00
2019-04-10T16:53:25.641Z,1.93
2019-04-10T16:55:54.052Z,1.77
2019-04-10T16:58:23.457Z,1.47
2019-04-10T17:00:51.787Z,2.13
2019-04-10T17:03:20.084Z,2.07
2019-04-10T17:05:48.421Z,2.27
2019-04-10T17:08:16.698Z,2.00
2019-04-10T17:10:45.741Z,2.27
2019-04-10T17:13:14.174Z,1.87
2019-04-10T17:15:42.467Z,2.20
2019-04-10T17:18:10.896Z,1.90
2019-04-10T17:20:40.377Z,1.70
2019-04-10T17:23:09.805Z,2.10
2019-04-10T17:25:38.404Z,2.37
2019-04-10T17:28:08.041Z,2.70
2019-04-10T17:30:38.023Z,1.90
2019-04-10T17:33:06.953Z,2.30
2019-04-10T17:35:35.924Z,2.43
2019-04-10T17:38:04.679Z,2.20
2019-04-10T17:40:41.813Z,1.53
2019-04-10T17:43:03.279Z,2.40
2019-04-10T17:45:32.051Z,2.73
2019-04-10T17:48:01.071Z,2.47
2019-04-10T17:50:30.076Z,2.30
2019-04-10T17:52:58.868Z,1.93
2019-04-10T17:55:27.482Z,2.43
2019-04-10T17:57:57.767Z,2.07
2019-04-10T18:00:31.578Z,2.30
2019-04-10T18:03:01.121Z,2.10
2019-04-10T18:05:30.865Z,2.27
2019-04-10T18:08:00.705Z,3.00
2019-04-10T18:10:43.927Z,3.00
2019-04-10T18:13:01.041Z,2.63
2019-04-10T18:15:30.251Z,2.67
2019-04-10T18:17:59.864Z,2.30
2019-04-10T18:20:28.450Z,2.77
2019-04-10T18:22:57.300Z,3.60
2019-04-10T18:25:25.728Z,2.70
2019-04-10T18:27:54.612Z,2.50
2019-04-10T18:30:23.824Z,2.57
2019-04-10T18:32:52.254Z,2.90
2019-04-10T18:35:20.659Z,2.93
2019-04-10T18:37:49.119Z,2.93
2019-04-10T18:40:17.391Z,2.97
2019-04-10T18:42:45.690Z,3.00
2019-04-10T18:45:13.973Z,3.50
2019-04-10T18:47:42.280Z,3.50
2019-04-10T18:50:11.993Z,2.70
2019-04-10T18:52:40.386Z,1.97
2019-04-10T18:55:09.016Z,2.80
2019-04-10T18:57:37.373Z,3.13
2019-04-10T19:00:12.311Z,2.73
2019-04-10T19:02:43.971Z,2.67
2019-04-10T19:05:23.508Z,3.43
2019-04-10T19:07:52.156Z,2.93
2019-04-10T19:10:20.713Z,2.93
2019-04-10T19:12:49.048Z,2.93
2019-04-10T19:15:17.401Z,2.80
2019-04-10T19:17:46.753Z,3.60
2019-04-10T19:20:18.390Z,3.23
2019-04-10T19:22:46.801Z,3.87
2019-04-10T19:25:15.154Z,2.83
2019-04-10T19:27:44.470Z,3.13
2019-04-10T19:30:27.307Z,2.33
2019-04-10T19:32:55.746Z,2.80
2019-04-10T19:35:24.432Z,2.53
2019-04-10T19:37:52.971Z,3.20
2019-04-10T19:40:21.464Z,3.27
2019-04-10T19:42:51.454Z,3.10
2019-04-10T19:45:19.908Z,3.20
2019-04-10T19:47:48.495Z,2.77
2019-04-10T19:50:17.312Z,3.30
2019-04-10T19:52:46.770Z,3.30
2019-04-10T19:55:15.607Z,3.50
2019-04-10T19:57:43.951Z,3.67
2019-04-10T20:00:12.652Z,2.77
2019-04-10T20:02:41.730Z,2.67
2019-04-10T20:05:10.340Z,2.83
2019-04-10T20:07:39.190Z,3.50
2019-04-10T20:10:08.797Z,3.30
2019-04-10T20:12:37.329Z,2.67
2019-04-10T20:15:07.316Z,2.97
2019-04-10T20:17:35.985Z,2.90
2019-04-10T20:20:06.858Z,2.97
2019-04-10T20:22:35.557Z,3.10
2019-04-10T20:25:03.944Z,3.17
2019-04-10T20:27:32.353Z,2.83
2019-04-10T20:30:01.606Z,2.77
2019-04-10T20:32:30.784Z,2.97
2019-04-10T20:35:00.061Z,3.40
2019-04-10T20:37:29.031Z,2.77
2019-04-10T20:39:57.930Z,3.40
2019-04-10T20:42:26.697Z,3.07
2019-04-10T20:44:55.028Z,2.70
2019-04-10T20:47:24.599Z,3.00
2019-04-10T20:49:53.347Z,3.10
2019-04-10T20:52:22.104Z,3.13
2019-04-10T20:54:51.339Z,3.57
2019-04-10T20:57:19.619Z,3.27
2019-04-10T20:59:48.885Z,3.60
2019-04-10T21:02:18.061Z,3.20
2019-04-10T21:04:54.508Z,3.00
2019-04-10T21:07:16.468Z,3.03
2019-04-10T21:09:44.960Z,2.93
2019-04-10T21:12:17.459Z,3.70
2019-04-10T21:14:43.956Z,3.00
2019-04-10T21:17:12.562Z,2.70
2019-04-10T21:19:40.997Z,3.27
2019-04-10T21:22:09.628Z,3.30
2019-04-10T21:24:37.995Z,2.70
2019-04-10T21:27:07.165Z,2.80
2019-04-10T21:29:53.249Z,3.00
2019-04-10T21:32:32.384Z,3.30
2019-04-10T21:35:02.443Z,3.37
2019-04-10T21:37:30.831Z,2.70
2019-04-10T21:40:00.497Z,3.30
2019-04-10T21:42:29.782Z,4.03
2019-04-10T21:44:58.260Z,3.13
2019-04-10T21:47:27.659Z,3.60
2019-04-10T21:49:56.899Z,2.83
2019-04-10T21:52:25.542Z,2.93
2019-04-10T21:54:57.086Z,3.40
2019-04-10T21:57:24.349Z,3.13
2019-04-10T21:59:56.040Z,3.17
2019-04-10T22:02:24.340Z,3.50
2019-04-10T22:04:52.697Z,2.50
2019-04-10T22:07:38.725Z,2.90
2019-04-10T22:10:09.982Z,3.30
2019-04-10T22:12:43.916Z,2.60
2019-04-10T22:15:10.720Z,2.70
2019-04-10T22:17:39.099Z,2.90
2019-04-10T22:20:07.602Z,3.47
2019-04-10T22:22:35.833Z,2.93
2019-04-10T22:25:07.406Z,3.90
2019-04-10T22:27:35.974Z,3.40
2019-04-10T22:30:06.486Z,2.83
2019-04-10T22:32:35.313Z,2.83
2019-04-10T22:35:05.135Z,2.90
2019-04-10T22:37:33.502Z,3.47
2019-04-10T22:40:01.823Z,3.70
2019-04-10T22:42:41.105Z,3.00
2019-04-10T22:45:00.866Z,3.23
2019-04-10T22:47:29.614Z,3.57
2019-04-10T22:49:58.051Z,3.60
2019-04-10T22:52:26.771Z,2.90
2019-04-10T22:54:55.320Z,3.57
2019-04-10T22:57:23.611Z,3.63
2019-04-10T22:59:51.934Z,2.67
2019-04-10T23:02:21.410Z,3.20
2019-04-10T23:04:49.824Z,3.10
2019-04-10T23:07:18.171Z,3.37
2019-04-10T23:09:46.630Z,3.37
2019-04-10T23:12:16.127Z,3.27
2019-04-10T23:14:45.352Z,2.97
2019-04-10T23:17:14.683Z,3.80
2019-04-10T23:19:43.253Z,3.40
2019-04-10T23:22:11.844Z,3.60
2019-04-10T23:24:40.183Z,3.47
2019-04-10T23:27:09.343Z,3.30
2019-04-10T23:29:38.200Z,3.70
2019-04-10T23:32:06.632Z,3.70
2019-04-10T23:34:34.931Z,3.60
2019-04-10T23:37:03.257Z,4.40
2019-04-10T23:39:32.356Z,3.63
2019-04-10T23:42:01.598Z,2.80
2019-04-10T23:44:31.116Z,3.73
2019-04-10T23:46:59.944Z,3.60
2019-04-10T23:49:28.315Z,3.03
2019-04-10T23:51:56.658Z,4.17
2019-04-10T23:54:25.046Z,3.07
2019-04-10T23:56:54.684Z,3.20
2019-04-10T23:59:23.078Z,3.80
